Time;durP1;ratioP1;P1;durP2;ratioP2;P2;SDS_P1;SDS_P2;PMS_P1;PMS_P2;Temp;Humidity;BMP_temperature;BMP_pressure;BME280_temperature;BME280_humidity;BME280_pressure;Samples;Min_cycle;Max_cycle;Signal;HPM_P1;HPM_P2
2022/12/08 00:00:16;;;;;;;31.07;21.37;;;;;;;-143.84;98.26;43925.78;5090810;28;20830;-76
2022/12/08 00:02:43;;;;;;;35.73;21.67;;;;;;;-143.84;98.31;43878.22;5090997;28;20439;-77
2022/12/08 00:10:44;;;;;;;35.87;21.77;;;;;;;-143.84;98.23;43908.66;5091230;28;20773;-77
2022/12/08 00:13:11;;;;;;;34.37;21.43;;;;;;;-143.84;98.35;43889.63;5091076;28;20443;-76
2022/12/08 00:15:38;;;;;;;36.67;24.00;;;;;;;-143.84;98.58;43887.72;5090816;28;20442;-76
2022/12/08 00:18:06;;;;;;;33.53;23.10;;;;;;;-143.84;98.78;43925.78;5090730;28;20552;-76
2022/12/08 00:20:33;;;;;;;30.97;21.80;;;;;;;-143.84;98.83;43878.22;5090576;28;20483;-77
2022/12/08 00:23:03;;;;;;;35.87;24.97;;;;;;;-143.84;98.99;43901.06;5090683;28;20447;-77
2022/12/08 00:25:31;;;;;;;32.07;22.47;;;;;;;-143.84;99.11;43899.16;5090567;28;20475;-76
2022/12/08 00:27:58;;;;;;;29.20;19.23;;;;;;;-143.84;99.30;43891.53;5090497;28;20470;-77
2022/12/08 00:30:25;;;;;;;37.67;21.07;;;;;;;-143.84;99.42;43910.56;5090652;28;21125;-77
2022/12/08 00:32:52;;;;;;;32.70;21.57;;;;;;;-143.84;99.61;43916.28;5090928;28;20444;-77
2022/12/08 00:35:19;;;;;;;43.90;21.10;;;;;;;-143.84;99.97;43944.84;5090490;28;20436;-77
2022/12/08 00:37:47;;;;;;;33.20;22.00;;;;;;;-143.84;100.00;43914.38;5089856;28;20440;-77
2022/12/08 00:40:16;;;;;;;40.40;23.53;;;;;;;-143.84;99.84;43906.75;5090716;28;20471;-77
2022/12/08 00:42:43;;;;;;;36.03;22.47;;;;;;;-143.84;99.94;43944.84;5090609;28;20521;-77
2022/12/08 00:45:11;;;;;;;42.00;24.10;;;;;;;-143.84;99.95;43906.75;5090620;28;20417;-77
2022/12/08 00:47:39;;;;;;;33.30;22.60;;;;;;;-143.84;99.94;43941.03;5090550;28;20489;-77
2022/12/08 00:50:07;;;;;;;38.67;24.03;;;;;;;-143.84;99.84;43923.91;5090179;28;20490;-77
2022/12/08 00:52:34;;;;;;;42.93;26.90;;;;;;;-143.84;99.84;43895.34;5090602;28;20814;-77
2022/12/08 00:55:02;;;;;;;57.73;31.07;;;;;;;-143.84;99.82;43916.28;5090219;28;20493;-77
2022/12/08 00:57:31;;;;;;;36.33;22.07;;;;;;;-143.84;99.79;43927.69;5090090;28;20447;-77
2022/12/08 00:59:58;;;;;;;34.93;21.17;;;;;;;-143.84;99.63;43902.97;5090095;28;20824;-77
2022/12/08 01:02:25;;;;;;;36.50;19.97;;;;;;;-143.84;99.58;43918.19;5090042;28;20446;-77
2022/12/08 01:04:53;;;;;;;30.90;19.30;;;;;;;-143.84;99.75;43933.41;5089880;28;20508;-77
2022/12/08 01:07:21;;;;;;;28.30;19.00;;;;;;;-143.84;99.34;43908.66;5089832;28;21013;-76
2022/12/08 01:09:48;;;;;;;32.97;20.60;;;;;;;-143.84;99.32;43901.06;5090319;28;20425;-76
2022/12/08 01:12:15;;;;;;;37.00;19.40;;;;;;;-143.84;99.24;43908.66;5090011;28;20450;-77
2022/12/08 01:14:44;;;;;;;31.27;18.43;;;;;;;-143.84;99.27;43923.91;5089614;28;20444;-76
2022/12/08 01:17:11;;;;;;;36.67;19.60;;;;;;;-143.84;99.02;43923.91;5089879;28;20446;-77
2022/12/08 01:19:38;;;;;;;30.40;20.70;;;;;;;-143.84;98.79;43922.00;5090557;28;20446;-77
2022/12/08 01:22:05;;;;;;;34.97;20.60;;;;;;;-143.84;98.66;43910.56;5089753;28;20512;-76
2022/12/08 01:24:32;;;;;;;36.70;20.47;;;;;;;-143.84;98.55;43891.53;5089714;28;20511;-76
2022/12/08 01:26:59;;;;;;;27.40;19.30;;;;;;;-143.84;98.38;43935.31;5089453;28;20953;-77
2022/12/08 01:29:27;;;;;;;33.50;19.40;;;;;;;-143.84;98.19;43872.50;5089353;28;20965;-77
2022/12/08 01:31:56;;;;;;;31.77;20.60;;;;;;;-143.84;98.14;43891.53;5089687;28;20502;-76
2022/12/08 01:34:23;;;;;;;28.23;18.83;;;;;;;-143.84;97.88;43902.97;5090014;28;21269;-77
2022/12/08 01:36:50;;;;;;;26.80;17.60;;;;;;;-143.84;97.83;43937.22;5089702;28;20492;-77
2022/12/08 01:39:18;;;;;;;28.27;18.30;;;;;;;-143.84;97.72;43922.00;5090280;28;20445;-77
2022/12/08 01:41:47;;;;;;;29.57;19.53;;;;;;;-143.84;97.78;43895.34;5089664;28;20479;-77
2022/12/08 01:44:51;;;;;;;25.43;17.77;;;;;;;-143.84;97.55;43925.78;5089757;28;21024;-76
2022/12/08 01:47:20;;;;;;;28.23;18.70;;;;;;;-143.84;97.50;43937.22;5089735;28;20443;-77
2022/12/08 01:49:48;;;;;;;37.93;19.83;;;;;;;-143.84;97.52;43935.31;5090823;28;21226;-77
2022/12/08 01:52:18;;;;;;;29.40;18.97;;;;;;;-143.84;97.39;43937.22;5093520;28;20439;-77
2022/12/08 01:54:49;;;;;;;36.90;19.47;;;;;;;-143.84;97.70;43944.84;5093386;28;20495;-76
2022/12/08 01:57:20;;;;;;;36.10;19.83;;;;;;;-143.84;97.56;43933.41;5093422;28;20495;-77
2022/12/08 01:59:53;;;;;;;36.93;22.57;;;;;;;-143.84;97.45;43880.13;5093644;28;20848;-77
2022/12/08 02:02:24;;;;;;;38.40;22.60;;;;;;;-143.84;97.24;43937.22;5093396;28;20498;-77
2022/12/08 02:04:51;;;;;;;40.93;20.43;;;;;;;-143.84;96.89;43967.69;5093314;28;20435;-77
2022/12/08 02:07:18;;;;;;;32.77;19.80;;;;;;;-143.84;96.60;43984.81;5093358;28;20446;-77
2022/12/08 02:09:46;;;;;;;34.23;20.80;;;;;;;-143.84;96.44;44011.47;5093078;28;20444;-77
2022/12/08 02:12:14;;;;;;;30.60;19.50;;;;;;;-143.84;96.11;44059.03;5093649;28;20446;-76
2022/12/08 02:14:41;;;;;;;25.60;18.37;;;;;;;-143.84;95.58;44104.72;5093320;28;20485;-77
2022/12/08 02:17:20;;;;;;;42.60;20.60;;;;;;;-143.84;95.93;44066.66;5093001;28;20941;-77
2022/12/08 02:20:20;;;;;;;28.50;19.20;;;;;;;-143.84;96.14;44119.97;5092773;28;20504;-77
2022/12/08 02:22:55;;;;;;;27.97;19.43;;;;;;;-143.84;96.16;44045.72;5092844;28;20459;-77
2022/12/08 02:25:31;;;;;;;33.20;20.10;;;;;;;-143.84;96.29;44024.78;5092880;28;20443;-77
2022/12/08 02:28:08;;;;;;;32.83;18.90;;;;;;;-143.84;96.28;44049.53;5092763;28;20443;-77
2022/12/08 02:30:44;;;;;;;29.17;19.10;;;;;;;-143.84;96.21;44017.16;5093018;28;20827;-76
2022/12/08 02:33:58;;;;;;;32.43;18.50;;;;;;;-143.84;96.11;44072.38;5093017;28;20892;-76
2022/12/08 02:36:29;;;;;;;29.07;19.50;;;;;;;-143.84;96.61;44003.84;5092635;28;20439;-77
2022/12/08 02:39:03;;;;;;;34.80;20.53;;;;;;;-143.84;97.05;43937.22;5093120;28;20423;-76
2022/12/08 02:41:42;;;;;;;36.93;22.20;;;;;;;-143.84;97.29;43981.00;5092545;28;20487;-77
2022/12/08 02:44:17;;;;;;;37.80;20.70;;;;;;;-143.84;97.60;43914.38;5092605;28;20446;-77
2022/12/08 02:46:50;;;;;;;32.33;21.00;;;;;;;-143.84;97.63;43908.66;5092385;28;20960;-77
2022/12/08 02:49:19;;;;;;;29.33;19.47;;;;;;;-143.84;97.99;43891.53;5092752;28;20814;-75
2022/12/08 02:51:46;;;;;;;34.23;19.93;;;;;;;-143.84;98.04;43922.00;5092025;28;20513;-76
2022/12/08 02:54:14;;;;;;;35.50;21.60;;;;;;;-143.84;98.19;43897.25;5092343;28;20443;-76
2022/12/08 02:56:59;;;;;;;40.30;20.47;;;;;;;-143.84;98.21;43931.50;5092404;28;20428;-77
2022/12/08 02:59:35;;;;;;;34.93;21.00;;;;;;;-143.84;98.14;43901.06;5091915;28;20520;-77
2022/12/08 03:02:23;;;;;;;35.63;20.70;;;;;;;-143.84;98.32;43897.25;5090452;28;20520;-76
2022/12/08 03:05:03;;;;;;;38.23;19.93;;;;;;;-143.84;98.48;43893.44;5091844;28;20508;-76
2022/12/08 03:07:35;;;;;;;28.93;20.23;;;;;;;-143.84;98.66;43870.59;5091827;28;20450;-76
2022/12/08 03:10:10;;;;;;;42.70;21.60;;;;;;;-143.84;98.65;43889.63;5092161;28;20443;-76
2022/12/08 03:12:44;;;;;;;40.97;25.73;;;;;;;-143.84;99.12;43906.75;5092005;28;20443;-77
2022/12/08 03:15:14;;;;;;;35.37;21.50;;;;;;;-143.84;99.27;43901.06;5092154;28;20439;-77
2022/12/08 03:17:45;;;;;;;37.63;20.70;;;;;;;-143.84;99.34;43929.59;5091484;28;20447;-76
2022/12/08 03:20:18;;;;;;;31.57;21.33;;;;;;;-143.84;99.55;43939.13;5091452;28;21093;-76
2022/12/08 03:22:48;;;;;;;36.63;20.87;;;;;;;-143.84;99.49;43908.66;5090795;28;20486;-77
2022/12/08 03:25:19;;;;;;;33.87;20.30;;;;;;;-143.84;99.68;43925.78;5091067;28;20489;-77
2022/12/08 03:27:46;;;;;;;35.57;22.17;;;;;;;-143.84;99.73;43914.38;5091753;28;20438;-76
2022/12/08 03:30:14;;;;;;;36.30;20.53;;;;;;;-143.84;99.44;43923.91;5091285;28;20834;-77
2022/12/08 03:32:47;;;;;;;31.60;19.47;;;;;;;-143.84;99.71;43923.91;5091323;28;20448;-76
2022/12/08 03:35:23;;;;;;;26.63;18.70;;;;;;;-143.84;99.69;43925.78;5091502;28;20509;-77
2022/12/08 03:37:50;;;;;;;28.97;18.63;;;;;;;-143.84;100.00;43912.47;5091489;28;20438;-77
2022/12/08 03:40:20;;;;;;;29.90;20.33;;;;;;;-143.84;99.65;43952.44;5091176;28;20500;-77
2022/12/08 03:42:48;;;;;;;28.00;18.77;;;;;;;-143.84;99.56;43922.00;5091114;28;20483;-77
2022/12/08 03:45:15;;;;;;;25.37;17.30;;;;;;;-143.84;99.41;43920.09;5091092;28;20428;-77
2022/12/08 03:47:42;;;;;;;26.70;18.27;;;;;;;-143.84;99.44;43912.47;5091142;28;21018;-77
2022/12/08 03:50:10;;;;;;;27.10;18.50;;;;;;;-143.84;99.17;43941.03;5090973;28;20490;-77
2022/12/08 03:52:38;;;;;;;28.17;19.20;;;;;;;-143.84;99.04;43914.38;5091074;28;20451;-76
2022/12/08 03:55:07;;;;;;;30.73;19.00;;;;;;;-143.84;98.75;43904.84;5090892;28;20513;-76
2022/12/08 03:57:34;;;;;;;31.67;18.00;;;;;;;-143.84;98.59;43914.38;5090967;28;20436;-76
2022/12/08 04:00:01;;;;;;;21.70;16.57;;;;;;;-143.84;98.60;43887.72;5091056;28;20863;-75
2022/12/08 04:02:28;;;;;;;30.53;19.10;;;;;;;-143.84;98.55;43897.25;5090599;28;20487;-77
2022/12/08 04:04:55;;;;;;;24.00;18.10;;;;;;;-143.84;98.32;43927.69;5090905;28;20444;-76
2022/12/08 04:07:22;;;;;;;26.80;18.50;;;;;;;-143.84;97.92;43895.34;5090814;28;20978;-77
2022/12/08 04:09:50;;;;;;;30.20;18.07;;;;;;;-143.84;97.87;43895.34;5090890;28;20485;-77
2022/12/08 04:12:18;;;;;;;26.77;17.30;;;;;;;-143.84;97.34;43922.00;5090213;28;20446;-76
2022/12/08 04:14:45;;;;;;;29.83;16.43;;;;;;;-143.84;97.10;43912.47;5091043;28;20497;-77
2022/12/08 04:17:12;;;;;;;28.40;17.30;;;;;;;-143.84;96.92;43939.13;5090747;28;20436;-76
2022/12/08 04:19:39;;;;;;;29.00;17.23;;;;;;;-143.84;96.78;43937.22;5090792;28;20858;-77
2022/12/08 04:22:07;;;;;;;27.07;16.83;;;;;;;-143.84;96.90;43923.91;5090566;28;20556;-76
2022/12/08 04:24:34;;;;;;;22.10;17.00;;;;;;;-143.84;96.87;43944.84;5090395;28;20437;-76
2022/12/08 04:27:03;;;;;;;26.10;19.10;;;;;;;-143.84;96.77;43977.19;5090695;28;20432;-76
2022/12/08 04:29:30;;;;;;;35.07;17.30;;;;;;;-143.84;96.67;43982.91;5090292;28;20433;-76
2022/12/08 04:31:57;;;;;;;27.80;16.67;;;;;;;-143.84;96.57;44020.97;5090121;28;20811;-77
2022/12/08 04:34:24;;;;;;;23.63;17.17;;;;;;;-143.84;96.69;43944.84;5090728;28;20436;-77
2022/12/08 04:36:51;;;;;;;27.67;15.80;;;;;;;-143.84;96.47;43958.16;5090170;28;20440;-77
2022/12/08 04:39:18;;;;;;;24.47;16.50;;;;;;;-143.84;96.28;44011.47;5090016;28;20864;-77
2022/12/08 04:41:46;;;;;;;25.30;15.87;;;;;;;-143.84;95.93;43994.31;5089158;28;20476;-75
2022/12/08 04:44:15;;;;;;;24.90;16.73;;;;;;;-143.84;96.13;44009.56;5073233;28;21019;-79
2022/12/08 04:46:42;;;;;;;30.27;16.13;;;;;;;-143.84;96.01;44026.69;5075332;28;20433;-78
2022/12/08 04:49:09;;;;;;;24.73;17.30;;;;;;;-143.84;96.10;44024.78;5080514;28;20455;-75
2022/12/08 04:51:36;;;;;;;25.33;16.00;;;;;;;-143.84;95.90;44045.72;5088915;28;20484;-75
2022/12/08 04:54:03;;;;;;;22.70;15.03;;;;;;;-143.84;95.99;44089.50;5089326;28;20874;-76
2022/12/08 04:56:30;;;;;;;26.73;15.43;;;;;;;-143.84;95.75;44038.09;5089713;28;20445;-75
2022/12/08 04:58:57;;;;;;;25.60;16.90;;;;;;;-143.84;95.80;44066.66;5089547;28;20456;-76
2022/12/08 05:01:26;;;;;;;27.93;20.07;;;;;;;-143.84;95.71;44045.72;5088839;28;20489;-76
2022/12/08 05:03:53;;;;;;;29.80;20.23;;;;;;;-143.84;95.67;44091.41;5088745;28;20873;-76
2022/12/08 05:06:20;;;;;;;28.93;20.63;;;;;;;-143.84;95.29;44118.06;5089830;28;20493;-76
2022/12/08 05:08:47;;;;;;;23.83;16.77;;;;;;;-143.84;95.40;44156.13;5089791;28;20450;-75
2022/12/08 05:11:14;;;;;;;24.83;15.90;;;;;;;-143.84;94.96;44218.94;5089176;28;20494;-76
2022/12/08 05:13:41;;;;;;;25.43;16.60;;;;;;;-143.84;94.72;44245.59;5090218;28;20866;-77
2022/12/08 05:16:11;;;;;;;27.63;17.43;;;;;;;-143.84;94.59;44293.19;5090112;28;20438;-76
2022/12/08 05:18:41;;;;;;;28.40;20.60;;;;;;;-143.84;94.37;44291.28;5089328;28;20445;-76
2022/12/08 05:21:09;;;;;;;41.93;26.97;;;;;;;-143.84;94.33;44357.94;5089903;28;20447;-76
2022/12/08 05:23:36;;;;;;;42.80;34.53;;;;;;;-143.84;94.40;44340.78;5089927;28;20501;-75
2022/12/08 05:26:03;;;;;;;38.67;30.93;;;;;;;-143.84;94.33;44361.72;5093711;28;20496;-77
2022/12/08 05:28:30;;;;;;;30.10;18.77;;;;;;;-143.84;94.62;44270.34;5093853;28;20497;-77
2022/12/08 05:30:58;;;;;;;32.07;21.27;;;;;;;-143.84;94.99;44217.06;5094265;28;20444;-77
2022/12/08 05:33:25;;;;;;;29.00;19.03;;;;;;;-143.84;94.88;44217.06;5094023;28;20549;-78
2022/12/08 05:35:53;;;;;;;29.87;20.73;;;;;;;-143.84;94.79;44218.94;5094379;28;20424;-78
2022/12/08 05:38:20;;;;;;;36.33;20.40;;;;;;;-143.84;94.48;44281.78;5095018;28;20433;-77
2022/12/08 05:40:47;;;;;;;35.90;25.40;;;;;;;-143.84;94.42;44308.44;5094415;28;20424;-76
2022/12/08 05:43:14;;;;;;;39.00;27.93;;;;;;;-143.84;94.15;44319.84;5093718;28;21187;-77
2022/12/08 05:45:42;;;;;;;36.13;26.37;;;;;;;-143.84;93.68;44479.78;5094272;28;20452;-78
2022/12/08 05:48:09;;;;;;;37.33;24.90;;;;;;;-143.84;93.10;44637.78;5094423;28;21178;-78
2022/12/08 05:50:36;;;;;;;36.07;22.77;;;;;;;-143.84;92.71;44685.38;5094053;28;20537;-78
2022/12/08 05:53:04;;;;;;;28.77;21.33;;;;;;;-143.84;92.40;44790.13;5094301;28;20463;-77
2022/12/08 05:55:32;;;;;;;33.03;22.70;;;;;;;-143.84;92.14;44784.41;5094288;28;20483;-78
2022/12/08 05:57:59;;;;;;;31.27;20.87;;;;;;;-143.84;91.68;44830.09;5093712;28;21001;-77
2022/12/08 06:00:26;;;;;;;25.53;18.57;;;;;;;-143.84;91.54;44929.09;5094184;28;20436;-77
2022/12/08 06:02:53;;;;;;;25.17;17.80;;;;;;;-143.84;91.31;44932.91;5093585;28;20551;-80
2022/12/08 06:05:21;;;;;;;19.47;15.83;;;;;;;-143.84;91.12;44934.81;5093893;28;20437;-77
2022/12/08 06:07:48;;;;;;;23.40;16.53;;;;;;;-143.84;91.16;44948.16;5093843;28;20483;-76
2022/12/08 06:10:16;;;;;;;28.07;14.87;;;;;;;-143.84;91.15;44942.44;5093525;28;20434;-76
2022/12/08 06:12:44;;;;;;;27.83;18.33;;;;;;;-143.84;91.16;44950.06;5092730;28;20499;-78
2022/12/08 06:15:11;;;;;;;29.17;20.00;;;;;;;-143.84;91.32;44894.84;5092857;28;20441;-77
2022/12/08 06:17:38;;;;;;;27.13;19.43;;;;;;;-143.84;91.51;44896.75;5092025;28;20440;-75
2022/12/08 06:20:07;;;;;;;29.90;18.93;;;;;;;-143.84;91.78;44852.94;5092358;28;20452;-76
2022/12/08 06:22:35;;;;;;;30.20;19.00;;;;;;;-143.84;91.77;44873.88;5093130;28;20573;-77
2022/12/08 06:25:02;;;;;;;25.63;18.40;;;;;;;-143.84;91.92;44835.81;5092819;28;21022;-76
2022/12/08 06:27:30;;;;;;;26.90;18.90;;;;;;;-143.84;91.92;44860.56;5092199;28;20434;-76
2022/12/08 06:29:58;;;;;;;49.10;31.30;;;;;;;-143.84;92.09;44852.94;5092651;28;20502;-75
2022/12/08 06:32:25;;;;;;;38.07;28.10;;;;;;;-143.84;92.24;44822.47;5090956;28;20438;-76
2022/12/08 06:34:52;;;;;;;36.13;25.43;;;;;;;-143.84;92.54;44761.56;5090854;28;20448;-77
2022/12/08 06:37:19;;;;;;;37.53;22.80;;;;;;;-143.84;92.71;44704.44;5090622;28;20802;-77
2022/12/08 06:39:47;;;;;;;35.67;22.53;;;;;;;-143.84;93.18;44616.84;5091111;28;20447;-77
2022/12/08 06:45:00;;;;;;;30.07;22.03;;;;;;;-143.84;93.95;44314.13;5091553;28;20942;-77
2022/12/08 06:47:27;;;;;;;36.50;24.23;;;;;;;-143.84;94.50;44213.25;5090837;28;20489;-78
2022/12/08 06:49:54;;;;;;;41.20;27.07;;;;;;;-143.84;95.37;44024.78;5091507;28;20535;-77
2022/12/08 06:52:21;;;;;;;47.87;30.53;;;;;;;-143.84;96.47;43918.19;5092368;28;20508;-75
2022/12/08 06:54:48;;;;;;;35.10;26.03;;;;;;;-143.84;96.94;43906.75;5091521;28;20442;-74
2022/12/08 06:57:17;;;;;;;32.90;20.10;;;;;;;-143.84;96.99;43899.16;5091251;28;21038;-75
2022/12/08 06:59:44;;;;;;;34.33;19.57;;;;;;;-143.84;95.19;43971.47;5091459;28;20465;-74
2022/12/08 07:02:13;;;;;;;30.70;18.33;;;;;;;-143.84;93.32;44258.94;5091020;28;20483;-74
2022/12/08 07:04:40;;;;;;;28.00;19.23;;;;;;;-143.84;92.03;44626.38;5091246;28;20511;-74
2022/12/08 07:07:07;;;;;;;34.70;21.73;;;;;;;-143.84;91.06;44784.41;5091727;28;21196;-75
2022/12/08 07:09:35;;;;;;;39.83;23.20;;;;;;;-143.84;91.23;44843.44;5091954;28;20436;-77
2022/12/08 07:12:03;;;;;;;33.90;22.10;;;;;;;-143.84;90.76;44871.97;5093026;28;20536;-79
2022/12/08 07:14:30;;;;;;;28.23;17.83;;;;;;;-143.84;90.84;44839.63;5092433;28;20456;-77
2022/12/08 07:16:57;;;;;;;26.10;17.83;;;;;;;-143.84;91.43;44776.78;5092201;28;20824;-76
2022/12/08 07:19:26;;;;;;;29.57;18.43;;;;;;;-143.84;92.80;44515.94;5092057;28;20497;-76
2022/12/08 07:21:53;;;;;;;21.80;17.13;;;;;;;-143.84;92.69;44449.31;5092843;28;20436;-77
2022/12/08 07:24:20;;;;;;;22.10;15.60;;;;;;;-143.84;90.55;44820.56;5091892;28;21003;-76
2022/12/08 07:26:48;;;;;;;23.17;16.23;;;;;;;-143.84;89.27;44946.25;5092257;28;20436;-76
2022/12/08 07:29:15;;;;;;;25.33;16.37;;;;;;;-143.84;86.91;45066.22;5092433;28;20809;-75
2022/12/08 07:31:42;;;;;;;21.83;15.23;;;;;;;-143.84;87.10;45087.16;5091416;28;20450;-75
2022/12/08 07:37:36;;;;;;;24.03;17.33;;;;;;;-143.84;85.08;45121.44;5089976;28;20447;-75
2022/12/08 07:40:03;;;;;;;33.53;18.40;;;;;;;-143.84;84.99;45136.66;5090272;28;20444;-74
2022/12/08 07:42:33;;;;;;;22.93;17.87;;;;;;;-143.84;85.32;45096.66;5090960;28;20476;-75
2022/12/08 07:45:01;;;;;;;25.27;19.33;;;;;;;-143.84;83.70;45111.91;5090348;28;20507;-75
2022/12/08 07:47:28;;;;;;;34.80;19.70;;;;;;;-143.84;82.04;45180.47;5089858;28;20468;-75
2022/12/08 07:49:55;;;;;;;27.70;16.43;;;;;;;-143.84;81.05;45163.31;5089928;28;20488;-75
2022/12/08 07:52:22;;;;;;;22.93;16.57;;;;;;;-143.84;80.54;45155.69;5090295;28;20441;-75
2022/12/08 07:54:51;;;;;;;25.20;18.43;;;;;;;-143.84;79.13;45186.16;5090311;28;20445;-75
2022/12/08 07:57:18;;;;;;;21.97;16.10;;;;;;;-143.84;76.95;45195.69;5090503;28;21308;-75
2022/12/08 07:59:45;;;;;;;25.63;17.67;;;;;;;-143.84;75.54;45155.69;5090506;28;20503;-76
2022/12/08 08:02:16;;;;;;;30.07;19.27;;;;;;;-143.84;74.84;45167.13;5090959;28;20562;-75
2022/12/08 08:04:43;;;;;;;27.90;18.80;;;;;;;-143.84;74.53;45178.56;5090533;28;20456;-75
2022/12/08 08:07:11;;;;;;;28.43;18.67;;;;;;;-143.84;74.18;45176.66;5090074;28;20432;-75
2022/12/08 08:09:38;;;;;;;27.77;16.77;;;;;;;-143.84;73.10;45178.56;5090256;28;20446;-75
2022/12/08 08:12:07;;;;;;;32.17;17.37;;;;;;;-143.84;72.27;45189.97;5090459;28;20787;-75
2022/12/08 08:14:34;;;;;;;28.90;16.00;;;;;;;-143.84;71.92;45169.03;5090087;28;20447;-75
2022/12/08 08:17:01;;;;;;;23.30;16.87;;;;;;;-143.84;71.48;45193.78;5089941;28;20528;-74
2022/12/08 08:19:28;;;;;;;23.47;15.20;;;;;;;-143.84;70.40;45197.59;5090162;28;20492;-74
2022/12/08 08:21:56;;;;;;;25.20;15.13;;;;;;;-143.84;70.34;45189.97;5089806;28;20442;-74
2022/12/08 08:24:23;;;;;;;21.73;14.50;;;;;;;-143.84;70.07;45163.31;5089784;28;20495;-74
2022/12/08 08:26:52;;;;;;;29.30;17.50;;;;;;;-143.84;70.08;45169.03;5091278;28;20430;-74
2022/12/08 08:29:21;;;;;;;30.10;16.10;;;;;;;-143.84;69.30;45178.56;5110294;28;20990;-74
2022/12/08 08:31:48;;;;;;;28.70;17.83;;;;;;;-143.84;70.03;45167.13;5110162;28;20492;-74
2022/12/08 08:34:16;;;;;;;23.43;17.17;;;;;;;-143.84;68.32;45186.16;5110558;28;20522;-74
2022/12/08 08:36:43;;;;;;;30.47;17.77;;;;;;;-143.84;69.50;45203.31;5110914;28;20427;-74
2022/12/08 08:39:11;;;;;;;24.50;16.00;;;;;;;-143.84;69.53;45180.47;5110882;27;20458;-74
2022/12/08 08:41:38;;;;;;;26.57;17.37;;;;;;;-143.84;69.59;45180.47;5110128;28;20449;-74
2022/12/08 08:44:06;;;;;;;22.70;15.70;;;;;;;-143.84;68.70;45201.41;5109771;28;20470;-74
2022/12/08 08:46:34;;;;;;;28.33;16.20;;;;;;;-143.84;69.46;45193.78;5110184;28;20923;-74
2022/12/08 08:49:01;;;;;;;23.43;16.90;;;;;;;-143.84;69.52;45180.47;5110267;27;20446;-74
2022/12/08 08:51:28;;;;;;;23.83;17.70;;;;;;;-143.84;69.96;45172.84;5109688;28;20488;-74
2022/12/08 08:53:55;;;;;;;30.60;20.50;;;;;;;-143.84;70.36;45170.94;5111240;28;20937;-74
2022/12/08 08:56:23;;;;;;;31.43;21.20;;;;;;;-143.84;71.47;45203.31;5110694;28;20449;-76
2022/12/08 08:58:51;;;;;;;35.10;22.60;;;;;;;-143.84;71.91;45197.59;5110580;28;20483;-76
2022/12/08 09:01:20;;;;;;;32.37;22.33;;;;;;;-143.84;72.45;45199.50;5110953;28;20447;-75
2022/12/08 09:03:49;;;;;;;38.67;22.60;;;;;;;-143.84;73.56;45169.03;5110754;28;20523;-76
2022/12/08 09:06:16;;;;;;;36.83;23.63;;;;;;;-143.84;74.39;45197.59;5111071;28;20443;-76
2022/12/08 09:08:45;;;;;;;52.23;24.90;;;;;;;-143.84;75.15;45188.06;5111184;28;20454;-75
2022/12/08 09:11:13;;;;;;;46.77;25.83;;;;;;;-143.84;76.16;45193.78;5107343;28;20442;-77
2022/12/08 09:13:40;;;;;;;43.27;25.07;;;;;;;-143.84;77.23;45176.66;5070660;28;20880;-78
2022/12/08 09:16:09;;;;;;;51.40;24.67;;;;;;;-143.84;77.67;45199.50;5070255;28;20455;-77
2022/12/08 09:18:37;;;;;;;40.27;24.40;;;;;;;-143.84;77.92;45174.75;5070695;28;20459;-77
2022/12/08 09:21:07;;;;;;;35.67;24.43;;;;;;;-143.84;78.09;45174.75;5070625;28;20469;-77
2022/12/08 09:23:34;;;;;;;43.33;25.47;;;;;;;-143.84;78.69;45176.66;5101841;28;20511;-77
2022/12/08 09:26:05;;;;;;;45.73;24.67;;;;;;;-143.84;78.89;45186.16;5098338;28;20447;-77
2022/12/08 09:28:33;;;;;;;36.73;24.93;;;;;;;-143.84;79.93;45130.94;5110600;28;20468;-77
2022/12/08 09:31:00;;;;;;;40.20;22.50;;;;;;;-143.84;80.24;45161.41;5110080;28;20439;-76
2022/12/08 09:33:27;;;;;;;40.33;22.83;;;;;;;-143.84;80.53;45170.94;5110011;28;20443;-76
2022/12/08 09:35:54;;;;;;;33.87;23.00;;;;;;;-143.84;80.90;45188.06;5109709;28;20887;-76
2022/12/08 09:38:23;;;;;;;32.73;21.00;;;;;;;-143.84;81.24;45157.59;5109676;28;20491;-75
2022/12/08 09:40:52;;;;;;;39.30;22.40;;;;;;;-143.84;81.84;45167.13;5109611;28;20443;-76
2022/12/08 09:43:37;;;;;;;34.90;21.27;;;;;;;-143.84;81.84;45170.94;5109766;28;20487;-75
2022/12/08 09:46:07;;;;;;;36.20;21.27;;;;;;;-143.84;81.54;45186.16;5109691;28;20446;-75
2022/12/08 09:48:38;;;;;;;35.23;22.10;;;;;;;-143.84;81.90;45144.28;5109512;28;20975;-75
2022/12/08 09:51:06;;;;;;;36.97;22.13;;;;;;;-143.84;82.15;45153.81;5109593;28;20495;-75
2022/12/08 09:53:37;;;;;;;40.73;21.40;;;;;;;-143.84;82.10;45167.13;5109783;28;20454;-75
2022/12/08 09:56:09;;;;;;;31.03;22.30;;;;;;;-143.84;82.06;45150.00;5109154;28;20436;-75
2022/12/08 09:58:46;;;;;;;31.50;21.33;;;;;;;-143.84;82.28;45172.84;5109897;28;20793;-75
2022/12/08 10:01:14;;;;;;;30.13;20.07;;;;;;;-143.84;82.60;45153.81;5109600;28;20609;-75
2022/12/08 10:03:42;;;;;;;45.60;22.50;;;;;;;-143.84;82.03;45136.66;5109742;28;20566;-76
2022/12/08 10:06:19;;;;;;;49.67;22.77;;;;;;;-143.84;81.95;45159.50;5109679;28;20442;-77
2022/12/08 10:08:58;;;;;;;34.93;18.80;;;;;;;-143.84;82.07;45184.25;5109695;28;20811;-77
2022/12/08 10:11:32;;;;;;;32.47;19.90;;;;;;;-143.84;82.42;45132.84;5111482;28;20952;-76
2022/12/08 10:14:07;;;;;;;38.03;21.67;;;;;;;-143.84;82.36;45151.91;5113396;28;20446;-76
2022/12/08 10:16:40;;;;;;;31.60;22.40;;;;;;;-143.84;82.30;45159.50;5113443;28;20938;-76
2022/12/08 10:19:14;;;;;;;37.27;22.40;;;;;;;-143.84;81.76;45193.78;5113110;28;20443;-76
2022/12/08 10:21:42;;;;;;;33.53;22.60;;;;;;;-143.84;81.58;45163.31;5113080;27;20435;-76
2022/12/08 10:24:22;;;;;;;37.00;21.67;;;;;;;-143.84;82.41;45159.50;5112728;28;20486;-76
2022/12/08 10:26:50;;;;;;;34.37;21.90;;;;;;;-143.84;82.48;45136.66;5113092;28;20442;-76
2022/12/08 10:29:17;;;;;;;34.43;22.37;;;;;;;-143.84;82.56;45157.59;5112997;28;20964;-76
2022/12/08 10:31:44;;;;;;;40.87;24.27;;;;;;;-143.84;82.07;45161.41;5113092;28;20439;-76
2022/12/08 10:34:17;;;;;;;38.53;22.73;;;;;;;-143.84;82.03;45169.03;5112746;28;20476;-76
2022/12/08 10:36:46;;;;;;;39.87;22.17;;;;;;;-143.84;82.29;45151.91;5112891;28;20510;-76
2022/12/08 10:39:30;;;;;;;32.53;21.33;;;;;;;-143.84;81.62;45174.75;5113145;28;20482;-76
2022/12/08 10:42:01;;;;;;;37.90;23.30;;;;;;;-143.84;80.16;45155.69;5113196;28;20438;-76
2022/12/08 10:44:29;;;;;;;35.17;21.27;;;;;;;-143.84;80.35;45195.69;5112595;28;20485;-76
2022/12/08 10:46:56;;;;;;;32.53;20.93;;;;;;;-143.84;79.76;45188.06;5112888;28;20912;-77
2022/12/08 10:49:31;;;;;;;36.90;22.17;;;;;;;-143.84;80.19;45153.81;5112788;28;20977;-77
2022/12/08 10:51:58;;;;;;;42.43;27.30;;;;;;;-143.84;80.08;45174.75;5112470;28;20526;-76
2022/12/08 10:54:36;;;;;;;43.80;28.63;;;;;;;-143.84;79.43;45180.47;5112878;28;20538;-76
2022/12/08 10:57:03;;;;;;;43.23;25.53;;;;;;;-143.84;79.45;45159.50;5112620;28;20962;-77
2022/12/08 10:59:33;;;;;;;43.37;24.53;;;;;;;-143.84;79.36;45174.75;5112771;28;20443;-77
2022/12/08 11:02:00;;;;;;;42.73;25.37;;;;;;;-143.84;79.22;45189.97;5112645;27;20459;-76
2022/12/08 11:04:35;;;;;;;39.23;24.80;;;;;;;-143.84;79.13;45159.50;5112590;28;20529;-77
2022/12/08 11:07:04;;;;;;;41.93;24.23;;;;;;;-143.84;78.57;45157.59;5112702;28;20853;-77
2022/12/08 11:09:40;;;;;;;33.93;22.67;;;;;;;-143.84;78.15;45165.22;5112179;28;20775;-76
2022/12/08 11:12:09;;;;;;;34.87;20.87;;;;;;;-143.84;75.98;45174.75;5112165;28;20970;-76
2022/12/08 11:14:48;;;;;;;33.07;22.10;;;;;;;-143.84;75.07;45136.66;5112425;28;21017;-76
2022/12/08 11:17:17;;;;;;;45.93;27.00;;;;;;;-143.84;75.13;45191.88;5112311;28;20949;-76
2022/12/08 11:19:55;;;;;;;38.60;24.10;;;;;;;-143.84;75.78;45163.31;5111934;28;20437;-77
2022/12/08 11:22:26;;;;;;;46.53;25.47;;;;;;;-143.84;75.56;45180.47;5111606;28;20438;-70